sensor_id;sensor_type;location;lat;lon;timestamp;P1;durP1;ratioP1;P2;durP2;ratioP2
12469;SDS011;36499;46.484;13.832;2022-11-20T00:01:06;4.70;;;3.23;;
12469;SDS011;36499;46.484;13.832;2022-11-20T00:03:35;4.20;;;3.50;;
12469;SDS011;36499;46.484;13.832;2022-11-20T00:06:03;4.43;;;3.83;;
12469;SDS011;36499;46.484;13.832;2022-11-20T00:08:33;5.23;;;3.53;;
12469;SDS011;36499;46.484;13.832;2022-11-20T00:11:02;4.03;;;3.53;;
12469;SDS011;36499;46.484;13.832;2022-11-20T00:13:31;4.17;;;3.27;;
12469;SDS011;36499;46.484;13.832;2022-11-20T00:16:00;3.90;;;3.10;;
12469;SDS011;36499;46.484;13.832;2022-11-20T00:18:29;5.53;;;3.47;;
12469;SDS011;36499;46.484;13.832;2022-11-20T00:21:01;4.07;;;3.43;;
12469;SDS011;36499;46.484;13.832;2022-11-20T00:23:29;3.97;;;3.57;;
12469;SDS011;36499;46.484;13.832;2022-11-20T00:26:00;4.13;;;3.30;;
12469;SDS011;36499;46.484;13.832;2022-11-20T00:28:29;4.77;;;3.10;;
12469;SDS011;36499;46.484;13.832;2022-11-20T00:31:01;3.43;;;2.93;;
12469;SDS011;36499;46.484;13.832;2022-11-20T00:33:30;3.73;;;3.33;;
12469;SDS011;36499;46.484;13.832;2022-11-20T00:36:01;3.37;;;3.07;;
12469;SDS011;36499;46.484;13.832;2022-11-20T00:38:30;3.40;;;3.10;;
12469;SDS011;36499;46.484;13.832;2022-11-20T00:40:58;3.03;;;2.57;;
12469;SDS011;36499;46.484;13.832;2022-11-20T00:43:27;3.10;;;2.80;;
12469;SDS011;36499;46.484;13.832;2022-11-20T00:45:57;3.20;;;2.90;;
12469;SDS011;36499;46.484;13.832;2022-11-20T00:48:26;3.20;;;2.80;;
12469;SDS011;36499;46.484;13.832;2022-11-20T00:50:54;2.90;;;2.60;;
12469;SDS011;36499;46.484;13.832;2022-11-20T00:53:22;2.90;;;2.30;;
12469;SDS011;36499;46.484;13.832;2022-11-20T00:55:52;3.07;;;2.50;;
12469;SDS011;36499;46.484;13.832;2022-11-20T00:58:21;2.60;;;2.40;;
12469;SDS011;36499;46.484;13.832;2022-11-20T01:00:49;2.47;;;2.07;;
12469;SDS011;36499;46.484;13.832;2022-11-20T01:03:16;2.50;;;2.30;;
12469;SDS011;36499;46.484;13.832;2022-11-20T01:05:45;2.97;;;2.67;;
12469;SDS011;36499;46.484;13.832;2022-11-20T01:08:12;2.40;;;2.20;;
12469;SDS011;36499;46.484;13.832;2022-11-20T01:10:39;2.83;;;2.33;;
12469;SDS011;36499;46.484;13.832;2022-11-20T01:13:06;3.10;;;2.50;;
12469;SDS011;36499;46.484;13.832;2022-11-20T01:15:51;3.47;;;2.63;;
12469;SDS011;36499;46.484;13.832;2022-11-20T01:18:18;2.83;;;2.47;;
12469;SDS011;36499;46.484;13.832;2022-11-20T01:20:46;4.07;;;2.80;;
12469;SDS011;36499;46.484;13.832;2022-11-20T01:23:13;3.30;;;2.70;;
12469;SDS011;36499;46.484;13.832;2022-11-20T01:25:40;9.17;;;6.60;;
12469;SDS011;36499;46.484;13.832;2022-11-20T01:28:07;4.47;;;3.50;;
12469;SDS011;36499;46.484;13.832;2022-11-20T01:30:34;3.60;;;3.07;;
12469;SDS011;36499;46.484;13.832;2022-11-20T01:33:01;3.60;;;3.30;;
12469;SDS011;36499;46.484;13.832;2022-11-20T01:35:29;3.43;;;3.10;;
12469;SDS011;36499;46.484;13.832;2022-11-20T01:37:57;3.23;;;2.93;;
12469;SDS011;36499;46.484;13.832;2022-11-20T01:40:24;5.60;;;4.17;;
12469;SDS011;36499;46.484;13.832;2022-11-20T01:42:53;18.83;;;8.50;;
12469;SDS011;36499;46.484;13.832;2022-11-20T01:45:58;11.30;;;5.90;;
12469;SDS011;36499;46.484;13.832;2022-11-20T01:48:31;10.47;;;5.23;;
12469;SDS011;36499;46.484;13.832;2022-11-20T01:51:05;7.13;;;5.30;;
12469;SDS011;36499;46.484;13.832;2022-11-20T01:53:43;10.97;;;6.23;;
12469;SDS011;36499;46.484;13.832;2022-11-20T01:56:12;10.93;;;6.50;;
12469;SDS011;36499;46.484;13.832;2022-11-20T01:58:42;6.00;;;4.50;;
12469;SDS011;36499;46.484;13.832;2022-11-20T02:01:16;6.67;;;5.00;;
12469;SDS011;36499;46.484;13.832;2022-11-20T02:03:43;10.20;;;6.10;;
12469;SDS011;36499;46.484;13.832;2022-11-20T02:06:12;5.53;;;4.13;;
12469;SDS011;36499;46.484;13.832;2022-11-20T02:08:47;6.80;;;4.77;;
12469;SDS011;36499;46.484;13.832;2022-11-20T02:11:14;6.53;;;4.80;;
12469;SDS011;36499;46.484;13.832;2022-11-20T02:13:41;5.43;;;4.63;;
12469;SDS011;36499;46.484;13.832;2022-11-20T02:16:11;5.80;;;5.10;;
12469;SDS011;36499;46.484;13.832;2022-11-20T02:18:44;5.63;;;5.13;;
12469;SDS011;36499;46.484;13.832;2022-11-20T02:21:14;6.60;;;5.87;;
12469;SDS011;36499;46.484;13.832;2022-11-20T02:23:59;8.37;;;6.27;;
12469;SDS011;36499;46.484;13.832;2022-11-20T02:26:31;6.43;;;5.70;;
12469;SDS011;36499;46.484;13.832;2022-11-20T02:29:04;6.77;;;6.07;;
12469;SDS011;36499;46.484;13.832;2022-11-20T02:31:37;6.27;;;5.67;;
12469;SDS011;36499;46.484;13.832;2022-11-20T02:34:08;6.77;;;6.03;;
12469;SDS011;36499;46.484;13.832;2022-11-20T02:36:36;6.57;;;5.90;;
12469;SDS011;36499;46.484;13.832;2022-11-20T02:39:07;6.43;;;5.67;;
12469;SDS011;36499;46.484;13.832;2022-11-20T02:41:41;6.43;;;5.57;;
12469;SDS011;36499;46.484;13.832;2022-11-20T02:44:09;6.63;;;5.80;;
12469;SDS011;36499;46.484;13.832;2022-11-20T02:46:36;6.10;;;5.50;;
12469;SDS011;36499;46.484;13.832;2022-11-20T02:49:03;7.43;;;6.00;;
12469;SDS011;36499;46.484;13.832;2022-11-20T02:51:31;6.90;;;6.20;;
12469;SDS011;36499;46.484;13.832;2022-11-20T02:53:58;6.50;;;5.87;;
12469;SDS011;36499;46.484;13.832;2022-11-20T02:56:27;8.30;;;6.10;;
12469;SDS011;36499;46.484;13.832;2022-11-20T02:58:54;6.80;;;5.70;;
12469;SDS011;36499;46.484;13.832;2022-11-20T03:01:22;16.07;;;7.77;;
12469;SDS011;36499;46.484;13.832;2022-11-20T03:03:49;7.27;;;6.10;;
12469;SDS011;36499;46.484;13.832;2022-11-20T03:06:19;6.60;;;5.80;;
12469;SDS011;36499;46.484;13.832;2022-11-20T03:08:46;6.90;;;6.17;;
12469;SDS011;36499;46.484;13.832;2022-11-20T03:11:13;6.77;;;6.00;;
12469;SDS011;36499;46.484;13.832;2022-11-20T03:13:43;6.50;;;5.83;;
12469;SDS011;36499;46.484;13.832;2022-11-20T03:16:11;7.13;;;5.90;;
12469;SDS011;36499;46.484;13.832;2022-11-20T03:18:40;5.77;;;5.17;;
12469;SDS011;36499;46.484;13.832;2022-11-20T03:21:09;6.17;;;5.27;;
12469;SDS011;36499;46.484;13.832;2022-11-20T03:23:37;6.90;;;5.77;;
12469;SDS011;36499;46.484;13.832;2022-11-20T03:26:09;5.57;;;5.03;;
12469;SDS011;36499;46.484;13.832;2022-11-20T03:28:39;6.00;;;5.10;;
12469;SDS011;36499;46.484;13.832;2022-11-20T03:31:09;5.97;;;5.37;;
12469;SDS011;36499;46.484;13.832;2022-11-20T03:33:39;5.43;;;4.93;;
12469;SDS011;36499;46.484;13.832;2022-11-20T03:36:08;5.87;;;4.90;;
12469;SDS011;36499;46.484;13.832;2022-11-20T03:38:38;5.57;;;4.90;;
12469;SDS011;36499;46.484;13.832;2022-11-20T03:41:06;5.60;;;4.77;;
12469;SDS011;36499;46.484;13.832;2022-11-20T03:43:37;6.20;;;5.23;;
12469;SDS011;36499;46.484;13.832;2022-11-20T03:46:04;5.10;;;4.60;;
12469;SDS011;36499;46.484;13.832;2022-11-20T03:48:34;6.63;;;5.40;;
12469;SDS011;36499;46.484;13.832;2022-11-20T03:51:11;5.10;;;4.57;;
12469;SDS011;36499;46.484;13.832;2022-11-20T03:53:40;5.47;;;4.97;;
12469;SDS011;36499;46.484;13.832;2022-11-20T03:56:09;7.97;;;5.10;;
12469;SDS011;36499;46.484;13.832;2022-11-20T03:58:39;5.77;;;5.17;;
12469;SDS011;36499;46.484;13.832;2022-11-20T04:01:07;7.00;;;6.30;;
12469;SDS011;36499;46.484;13.832;2022-11-20T04:03:38;6.13;;;5.37;;
12469;SDS011;36499;46.484;13.832;2022-11-20T04:06:08;7.77;;;6.03;;
12469;SDS011;36499;46.484;13.832;2022-11-20T04:08:38;6.10;;;5.30;;
12469;SDS011;36499;46.484;13.832;2022-11-20T04:11:09;6.40;;;5.20;;
12469;SDS011;36499;46.484;13.832;2022-11-20T04:13:38;5.57;;;5.03;;
12469;SDS011;36499;46.484;13.832;2022-11-20T04:16:07;6.83;;;5.70;;
12469;SDS011;36499;46.484;13.832;2022-11-20T04:18:35;5.67;;;5.07;;
12469;SDS011;36499;46.484;13.832;2022-11-20T04:21:05;6.57;;;5.07;;
12469;SDS011;36499;46.484;13.832;2022-11-20T04:23:33;5.50;;;4.90;;
12469;SDS011;36499;46.484;13.832;2022-11-20T04:26:01;5.87;;;5.27;;
12469;SDS011;36499;46.484;13.832;2022-11-20T04:28:29;5.50;;;4.90;;
12469;SDS011;36499;46.484;13.832;2022-11-20T04:31:04;5.63;;;5.00;;
12469;SDS011;36499;46.484;13.832;2022-11-20T04:33:33;6.17;;;4.83;;
12469;SDS011;36499;46.484;13.832;2022-11-20T04:36:02;6.13;;;4.90;;
12469;SDS011;36499;46.484;13.832;2022-11-20T04:38:34;4.93;;;4.40;;
12469;SDS011;36499;46.484;13.832;2022-11-20T04:41:01;6.73;;;4.73;;
12469;SDS011;36499;46.484;13.832;2022-11-20T04:43:31;5.33;;;4.77;;
12469;SDS011;36499;46.484;13.832;2022-11-20T04:46:00;5.43;;;4.83;;
12469;SDS011;36499;46.484;13.832;2022-11-20T04:48:28;5.33;;;4.80;;
12469;SDS011;36499;46.484;13.832;2022-11-20T04:50:55;5.90;;;5.30;;
12469;SDS011;36499;46.484;13.832;2022-11-20T04:53:24;5.30;;;4.50;;
12469;SDS011;36499;46.484;13.832;2022-11-20T04:55:51;5.17;;;4.40;;
12469;SDS011;36499;46.484;13.832;2022-11-20T04:58:26;5.63;;;4.73;;
12469;SDS011;36499;46.484;13.832;2022-11-20T05:00:53;5.47;;;4.50;;
12469;SDS011;36499;46.484;13.832;2022-11-20T05:03:26;5.77;;;4.63;;
12469;SDS011;36499;46.484;13.832;2022-11-20T05:05:54;5.00;;;4.50;;
12469;SDS011;36499;46.484;13.832;2022-11-20T05:08:21;5.10;;;4.23;;
12469;SDS011;36499;46.484;13.832;2022-11-20T05:10:49;7.97;;;4.73;;
12469;SDS011;36499;46.484;13.832;2022-11-20T05:13:16;6.10;;;4.67;;
12469;SDS011;36499;46.484;13.832;2022-11-20T05:15:43;4.80;;;4.30;;
12469;SDS011;36499;46.484;13.832;2022-11-20T05:18:10;5.10;;;4.03;;
12469;SDS011;36499;46.484;13.832;2022-11-20T05:20:37;5.37;;;4.50;;
12469;SDS011;36499;46.484;13.832;2022-11-20T05:23:05;4.97;;;4.47;;
12469;SDS011;36499;46.484;13.832;2022-11-20T05:25:32;6.80;;;4.43;;
12469;SDS011;36499;46.484;13.832;2022-11-20T05:28:00;5.43;;;4.90;;
12469;SDS011;36499;46.484;13.832;2022-11-20T05:30:27;4.33;;;3.73;;
12469;SDS011;36499;46.484;13.832;2022-11-20T05:32:54;4.57;;;4.13;;
12469;SDS011;36499;46.484;13.832;2022-11-20T05:35:21;6.17;;;5.00;;
12469;SDS011;36499;46.484;13.832;2022-11-20T05:37:48;4.87;;;4.17;;
12469;SDS011;36499;46.484;13.832;2022-11-20T05:40:16;5.33;;;4.53;;
12469;SDS011;36499;46.484;13.832;2022-11-20T05:42:43;5.40;;;4.80;;
12469;SDS011;36499;46.484;13.832;2022-11-20T05:45:12;5.37;;;4.60;;
12469;SDS011;36499;46.484;13.832;2022-11-20T05:47:39;5.07;;;4.37;;
12469;SDS011;36499;46.484;13.832;2022-11-20T05:50:06;4.70;;;4.20;;
12469;SDS011;36499;46.484;13.832;2022-11-20T05:52:34;4.70;;;4.07;;
12469;SDS011;36499;46.484;13.832;2022-11-20T05:55:01;5.10;;;3.90;;
12469;SDS011;36499;46.484;13.832;2022-11-20T05:57:28;4.80;;;4.30;;
12469;SDS011;36499;46.484;13.832;2022-11-20T05:59:56;4.70;;;4.20;;
12469;SDS011;36499;46.484;13.832;2022-11-20T06:02:25;5.60;;;4.90;;
12469;SDS011;36499;46.484;13.832;2022-11-20T06:04:52;5.80;;;4.50;;
12469;SDS011;36499;46.484;13.832;2022-11-20T06:07:19;5.53;;;4.50;;
12469;SDS011;36499;46.484;13.832;2022-11-20T06:09:46;5.07;;;4.50;;
12469;SDS011;36499;46.484;13.832;2022-11-20T06:12:13;4.93;;;4.33;;
12469;SDS011;36499;46.484;13.832;2022-11-20T06:14:40;5.13;;;4.63;;
12469;SDS011;36499;46.484;13.832;2022-11-20T06:17:07;5.67;;;4.60;;
12469;SDS011;36499;46.484;13.832;2022-11-20T06:19:36;4.37;;;3.97;;
12469;SDS011;36499;46.484;13.832;2022-11-20T06:22:03;4.73;;;4.13;;
12469;SDS011;36499;46.484;13.832;2022-11-20T06:24:30;5.97;;;5.00;;
12469;SDS011;36499;46.484;13.832;2022-11-20T06:26:57;5.67;;;4.80;;
12469;SDS011;36499;46.484;13.832;2022-11-20T06:29:24;5.53;;;4.70;;
12469;SDS011;36499;46.484;13.832;2022-11-20T06:31:51;5.10;;;4.60;;
12469;SDS011;36499;46.484;13.832;2022-11-20T06:34:18;5.00;;;4.50;;
12469;SDS011;36499;46.484;13.832;2022-11-20T06:36:47;4.63;;;4.17;;
12469;SDS011;36499;46.484;13.832;2022-11-20T06:39:14;6.53;;;4.63;;
12469;SDS011;36499;46.484;13.832;2022-11-20T06:41:41;6.33;;;4.00;;
12469;SDS011;36499;46.484;13.832;2022-11-20T06:44:08;4.60;;;3.80;;
12469;SDS011;36499;46.484;13.832;2022-11-20T06:46:35;5.07;;;4.60;;
12469;SDS011;36499;46.484;13.832;2022-11-20T06:49:02;5.20;;;4.70;;
12469;SDS011;36499;46.484;13.832;2022-11-20T06:51:29;5.63;;;4.80;;
12469;SDS011;36499;46.484;13.832;2022-11-20T06:53:58;5.83;;;5.00;;
12469;SDS011;36499;46.484;13.832;2022-11-20T06:56:25;6.33;;;5.70;;
12469;SDS011;36499;46.484;13.832;2022-11-20T06:58:53;7.93;;;5.90;;
12469;SDS011;36499;46.484;13.832;2022-11-20T07:01:20;5.67;;;5.07;;
12469;SDS011;36499;46.484;13.832;2022-11-20T07:03:48;5.67;;;5.10;;
12469;SDS011;36499;46.484;13.832;2022-11-20T07:06:16;5.97;;;4.67;;
12469;SDS011;36499;46.484;13.832;2022-11-20T07:08:43;5.83;;;5.13;;
12469;SDS011;36499;46.484;13.832;2022-11-20T07:11:13;6.63;;;5.33;;
12469;SDS011;36499;46.484;13.832;2022-11-20T07:13:40;6.97;;;5.20;;
12469;SDS011;36499;46.484;13.832;2022-11-20T07:16:07;7.77;;;5.30;;
12469;SDS011;36499;46.484;13.832;2022-11-20T07:18:35;7.10;;;6.03;;
12469;SDS011;36499;46.484;13.832;2022-11-20T07:21:03;8.33;;;6.60;;
12469;SDS011;36499;46.484;13.832;2022-11-20T07:23:33;9.07;;;6.13;;
12469;SDS011;36499;46.484;13.832;2022-11-20T07:26:02;6.57;;;5.20;;
12469;SDS011;36499;46.484;13.832;2022-11-20T07:28:31;8.77;;;6.33;;
12469;SDS011;36499;46.484;13.832;2022-11-20T07:30:59;10.47;;;6.57;;
12469;SDS011;36499;46.484;13.832;2022-11-20T07:33:26;6.87;;;5.67;;
12469;SDS011;36499;46.484;13.832;2022-11-20T07:35:53;8.10;;;5.43;;
12469;SDS011;36499;46.484;13.832;2022-11-20T07:38:20;6.63;;;5.60;;
12469;SDS011;36499;46.484;13.832;2022-11-20T07:40:48;9.67;;;5.67;;
12469;SDS011;36499;46.484;13.832;2022-11-20T07:43:19;9.93;;;6.10;;
12469;SDS011;36499;46.484;13.832;2022-11-20T07:45:47;7.33;;;5.60;;
12469;SDS011;36499;46.484;13.832;2022-11-20T07:48:14;4.70;;;4.10;;
12469;SDS011;36499;46.484;13.832;2022-11-20T07:50:41;7.63;;;5.40;;
12469;SDS011;36499;46.484;13.832;2022-11-20T07:53:08;4.83;;;4.13;;
12469;SDS011;36499;46.484;13.832;2022-11-20T07:55:37;5.73;;;4.77;;
12469;SDS011;36499;46.484;13.832;2022-11-20T07:58:04;4.40;;;4.00;;
12469;SDS011;36499;46.484;13.832;2022-11-20T08:00:31;4.83;;;4.30;;
12469;SDS011;36499;46.484;13.832;2022-11-20T08:03:00;4.43;;;3.63;;
12469;SDS011;36499;46.484;13.832;2022-11-20T08:05:29;4.63;;;4.03;;
12469;SDS011;36499;46.484;13.832;2022-11-20T08:07:56;4.17;;;3.77;;
12469;SDS011;36499;46.484;13.832;2022-11-20T08:10:24;4.40;;;4.00;;
12469;SDS011;36499;46.484;13.832;2022-11-20T08:12:52;4.23;;;3.83;;
12469;SDS011;36499;46.484;13.832;2022-11-20T08:15:39;6.13;;;4.00;;
12469;SDS011;36499;46.484;13.832;2022-11-20T08:18:08;4.37;;;3.97;;
12469;SDS011;36499;46.484;13.832;2022-11-20T08:20:49;4.33;;;3.90;;
12469;SDS011;36499;46.484;13.832;2022-11-20T08:23:16;5.23;;;3.67;;
12469;SDS011;36499;46.484;13.832;2022-11-20T08:25:43;4.20;;;3.80;;
12469;SDS011;36499;46.484;13.832;2022-11-20T08:28:14;4.93;;;3.90;;
12469;SDS011;36499;46.484;13.832;2022-11-20T08:30:42;3.53;;;3.23;;
12469;SDS011;36499;46.484;13.832;2022-11-20T08:33:10;5.27;;;3.40;;
12469;SDS011;36499;46.484;13.832;2022-11-20T08:35:37;3.10;;;2.80;;
12469;SDS011;36499;46.484;13.832;2022-11-20T08:38:06;2.30;;;2.10;;
12469;SDS011;36499;46.484;13.832;2022-11-20T08:40:33;3.37;;;3.00;;
12469;SDS011;36499;46.484;13.832;2022-11-20T08:43:06;2.77;;;2.43;;
12469;SDS011;36499;46.484;13.832;2022-11-20T08:45:33;3.00;;;2.50;;
12469;SDS011;36499;46.484;13.832;2022-11-20T08:48:00;2.87;;;2.50;;
12469;SDS011;36499;46.484;13.832;2022-11-20T08:50:30;4.17;;;2.60;;
12469;SDS011;36499;46.484;13.832;2022-11-20T08:53:01;2.60;;;2.23;;
12469;SDS011;36499;46.484;13.832;2022-11-20T08:55:29;2.67;;;2.47;;
12469;SDS011;36499;46.484;13.832;2022-11-20T08:57:56;2.67;;;2.43;;
12469;SDS011;36499;46.484;13.832;2022-11-20T09:00:23;2.97;;;2.70;;
12469;SDS011;36499;46.484;13.832;2022-11-20T09:02:51;3.00;;;2.70;;
12469;SDS011;36499;46.484;13.832;2022-11-20T09:05:18;3.10;;;2.80;;
12469;SDS011;36499;46.484;13.832;2022-11-20T09:07:46;2.83;;;2.63;;
12469;SDS011;36499;46.484;13.832;2022-11-20T09:10:14;2.80;;;2.57;;
12469;SDS011;36499;46.484;13.832;2022-11-20T09:12:41;2.67;;;2.37;;
12469;SDS011;36499;46.484;13.832;2022-11-20T09:15:08;2.93;;;2.63;;
12469;SDS011;36499;46.484;13.832;2022-11-20T09:17:36;2.63;;;2.43;;
12469;SDS011;36499;46.484;13.832;2022-11-20T09:20:03;2.87;;;2.57;;
12469;SDS011;36499;46.484;13.832;2022-11-20T09:22:31;3.10;;;2.80;;
12469;SDS011;36499;46.484;13.832;2022-11-20T09:25:00;2.87;;;2.57;;
12469;SDS011;36499;46.484;13.832;2022-11-20T09:27:27;3.10;;;2.70;;
12469;SDS011;36499;46.484;13.832;2022-11-20T09:29:54;3.03;;;2.70;;
12469;SDS011;36499;46.484;13.832;2022-11-20T09:32:21;3.73;;;3.33;;
12469;SDS011;36499;46.484;13.832;2022-11-20T09:34:48;2.73;;;2.50;;
12469;SDS011;36499;46.484;13.832;2022-11-20T09:37:15;3.30;;;3.00;;
12469;SDS011;36499;46.484;13.832;2022-11-20T09:39:42;3.43;;;2.80;;
12469;SDS011;36499;46.484;13.832;2022-11-20T09:45:13;3.13;;;2.47;;
12469;SDS011;36499;46.484;13.832;2022-11-20T09:48:01;4.27;;;3.20;;
12469;SDS011;36499;46.484;13.832;2022-11-20T09:51:05;3.47;;;3.07;;
12469;SDS011;36499;46.484;13.832;2022-11-20T09:53:45;4.00;;;2.87;;
12469;SDS011;36499;46.484;13.832;2022-11-20T09:56:33;3.03;;;2.73;;
12469;SDS011;36499;46.484;13.832;2022-11-20T09:59:17;4.63;;;3.10;;
12469;SDS011;36499;46.484;13.832;2022-11-20T10:01:59;2.83;;;2.50;;
12469;SDS011;36499;46.484;13.832;2022-11-20T10:04:29;3.03;;;2.57;;
12469;SDS011;36499;46.484;13.832;2022-11-20T10:07:01;2.80;;;2.53;;
12469;SDS011;36499;46.484;13.832;2022-11-20T10:09:35;3.03;;;2.20;;
12469;SDS011;36499;46.484;13.832;2022-11-20T10:12:12;2.67;;;2.40;;
12469;SDS011;36499;46.484;13.832;2022-11-20T10:14:55;4.67;;;2.33;;
12469;SDS011;36499;46.484;13.832;2022-11-20T10:20:43;2.93;;;2.43;;
12469;SDS011;36499;46.484;13.832;2022-11-20T10:23:24;2.63;;;2.23;;
12469;SDS011;36499;46.484;13.832;2022-11-20T10:26:22;3.00;;;2.27;;
12469;SDS011;36499;46.484;13.832;2022-11-20T10:29:08;2.67;;;2.33;;
12469;SDS011;36499;46.484;13.832;2022-11-20T10:31:41;2.80;;;2.10;;
12469;SDS011;36499;46.484;13.832;2022-11-20T10:34:16;2.53;;;2.07;;
12469;SDS011;36499;46.484;13.832;2022-11-20T10:36:50;3.60;;;2.30;;
12469;SDS011;36499;46.484;13.832;2022-11-20T10:39:25;2.63;;;2.33;;
12469;SDS011;36499;46.484;13.832;2022-11-20T10:42:04;2.67;;;2.20;;
12469;SDS011;36499;46.484;13.832;2022-11-20T10:44:38;2.87;;;2.20;;
12469;SDS011;36499;46.484;13.832;2022-11-20T10:47:31;2.30;;;2.10;;
12469;SDS011;36499;46.484;13.832;2022-11-20T10:50:01;2.37;;;2.07;;
12469;SDS011;36499;46.484;13.832;2022-11-20T10:52:43;2.43;;;2.10;;
12469;SDS011;36499;46.484;13.832;2022-11-20T10:55:26;2.20;;;1.97;;
12469;SDS011;36499;46.484;13.832;2022-11-20T10:58:13;2.70;;;2.20;;
12469;SDS011;36499;46.484;13.832;2022-11-20T11:00:49;2.90;;;2.43;;
12469;SDS011;36499;46.484;13.832;2022-11-20T11:03:22;2.10;;;1.90;;
12469;SDS011;36499;46.484;13.832;2022-11-20T11:05:56;2.40;;;2.20;;
12469;SDS011;36499;46.484;13.832;2022-11-20T11:08:39;3.60;;;1.83;;
12469;SDS011;36499;46.484;13.832;2022-11-20T11:11:18;2.60;;;2.40;;
12469;SDS011;36499;46.484;13.832;2022-11-20T11:13:52;3.43;;;2.00;;
12469;SDS011;36499;46.484;13.832;2022-11-20T11:16:20;2.30;;;1.93;;
12469;SDS011;36499;46.484;13.832;2022-11-20T11:19:04;2.43;;;1.80;;
12469;SDS011;36499;46.484;13.832;2022-11-20T11:21:46;3.63;;;1.73;;
12469;SDS011;36499;46.484;13.832;2022-11-20T11:24:21;2.27;;;1.90;;
12469;SDS011;36499;46.484;13.832;2022-11-20T11:27:12;2.70;;;1.97;;
12469;SDS011;36499;46.484;13.832;2022-11-20T11:29:42;2.17;;;1.70;;
12469;SDS011;36499;46.484;13.832;2022-11-20T11:32:11;3.03;;;2.10;;
12469;SDS011;36499;46.484;13.832;2022-11-20T11:34:43;4.30;;;3.17;;
12469;SDS011;36499;46.484;13.832;2022-11-20T11:37:11;5.70;;;3.90;;
12469;SDS011;36499;46.484;13.832;2022-11-20T11:39:46;4.70;;;4.10;;
12469;SDS011;36499;46.484;13.832;2022-11-20T11:42:17;5.60;;;4.77;;
12469;SDS011;36499;46.484;13.832;2022-11-20T11:44:46;5.80;;;4.87;;
12469;SDS011;36499;46.484;13.832;2022-11-20T11:47:32;8.93;;;6.37;;
12469;SDS011;36499;46.484;13.832;2022-11-20T11:50:15;8.00;;;6.13;;
12469;SDS011;36499;46.484;13.832;2022-11-20T11:52:53;6.60;;;5.47;;
12469;SDS011;36499;46.484;13.832;2022-11-20T11:55:31;6.33;;;5.00;;
12469;SDS011;36499;46.484;13.832;2022-11-20T11:58:15;6.07;;;4.57;;
12469;SDS011;36499;46.484;13.832;2022-11-20T12:01:09;6.87;;;5.17;;
12469;SDS011;36499;46.484;13.832;2022-11-20T12:03:54;6.10;;;5.07;;
12469;SDS011;36499;46.484;13.832;2022-11-20T12:06:31;7.43;;;5.07;;
12469;SDS011;36499;46.484;13.832;2022-11-20T12:09:07;5.27;;;4.70;;
12469;SDS011;36499;46.484;13.832;2022-11-20T12:11:38;7.33;;;5.67;;
12469;SDS011;36499;46.484;13.832;2022-11-20T12:14:13;9.47;;;5.47;;
12469;SDS011;36499;46.484;13.832;2022-11-20T12:16:49;6.93;;;5.63;;
12469;SDS011;36499;46.484;13.832;2022-11-20T12:19:22;6.83;;;5.63;;
12469;SDS011;36499;46.484;13.832;2022-11-20T12:21:54;7.03;;;4.70;;
12469;SDS011;36499;46.484;13.832;2022-11-20T12:24:35;5.70;;;5.17;;
12469;SDS011;36499;46.484;13.832;2022-11-20T12:27:28;5.80;;;4.93;;
12469;SDS011;36499;46.484;13.832;2022-11-20T12:30:22;5.83;;;5.17;;
12469;SDS011;36499;46.484;13.832;2022-11-20T12:33:08;5.90;;;4.93;;
12469;SDS011;36499;46.484;13.832;2022-11-20T12:35:58;8.43;;;6.47;;
12469;SDS011;36499;46.484;13.832;2022-11-20T12:41:55;6.47;;;4.83;;
12469;SDS011;36499;46.484;13.832;2022-11-20T12:45:04;7.07;;;4.80;;
12469;SDS011;36499;46.484;13.832;2022-11-20T12:48:01;5.83;;;5.20;;
12469;SDS011;36499;46.484;13.832;2022-11-20T12:51:11;5.70;;;5.03;;
12469;SDS011;36499;46.484;13.832;2022-11-20T12:53:59;5.17;;;4.67;;
12469;SDS011;36499;46.484;13.832;2022-11-20T12:56:49;5.17;;;4.67;;
12469;SDS011;36499;46.484;13.832;2022-11-20T12:59:33;5.07;;;4.57;;
12469;SDS011;36499;46.484;13.832;2022-11-20T13:02:26;5.60;;;4.73;;
12469;SDS011;36499;46.484;13.832;2022-11-20T13:05:19;5.10;;;4.37;;
12469;SDS011;36499;46.484;13.832;2022-11-20T13:08:03;4.33;;;3.83;;
12469;SDS011;36499;46.484;13.832;2022-11-20T13:10:42;6.30;;;4.77;;
12469;SDS011;36499;46.484;13.832;2022-11-20T13:13:26;6.87;;;4.50;;
12469;SDS011;36499;46.484;13.832;2022-11-20T13:16:16;4.63;;;4.00;;
12469;SDS011;36499;46.484;13.832;2022-11-20T13:18:52;5.63;;;4.67;;
12469;SDS011;36499;46.484;13.832;2022-11-20T13:21:21;4.30;;;3.90;;
12469;SDS011;36499;46.484;13.832;2022-11-20T13:24:25;4.27;;;3.80;;
12469;SDS011;36499;46.484;13.832;2022-11-20T13:27:03;4.33;;;3.60;;
12469;SDS011;36499;46.484;13.832;2022-11-20T13:29:47;5.87;;;4.00;;
12469;SDS011;36499;46.484;13.832;2022-11-20T13:32:49;3.90;;;3.50;;
12469;SDS011;36499;46.484;13.832;2022-11-20T13:35:24;5.43;;;3.90;;
12469;SDS011;36499;46.484;13.832;2022-11-20T13:38:03;4.67;;;3.93;;
12469;SDS011;36499;46.484;13.832;2022-11-20T13:40:34;3.90;;;3.50;;
12469;SDS011;36499;46.484;13.832;2022-11-20T13:43:10;4.23;;;3.63;;
12469;SDS011;36499;46.484;13.832;2022-11-20T13:45:54;4.50;;;3.80;;
12469;SDS011;36499;46.484;13.832;2022-11-20T13:48:24;3.97;;;3.43;;
12469;SDS011;36499;46.484;13.832;2022-11-20T13:54:16;4.10;;;3.23;;
12469;SDS011;36499;46.484;13.832;2022-11-20T13:57:30;4.10;;;3.30;;
12469;SDS011;36499;46.484;13.832;2022-11-20T14:00:28;4.00;;;3.60;;
12469;SDS011;36499;46.484;13.832;2022-11-20T14:02:59;3.57;;;3.13;;
12469;SDS011;36499;46.484;13.832;2022-11-20T14:05:46;10.13;;;3.93;;
12469;SDS011;36499;46.484;13.832;2022-11-20T14:08:23;3.20;;;2.90;;
12469;SDS011;36499;46.484;13.832;2022-11-20T14:11:02;5.23;;;3.03;;
12469;SDS011;36499;46.484;13.832;2022-11-20T14:13:54;3.50;;;2.93;;
12469;SDS011;36499;46.484;13.832;2022-11-20T14:16:30;4.87;;;3.20;;
12469;SDS011;36499;46.484;13.832;2022-11-20T14:19:17;3.93;;;3.10;;
12469;SDS011;36499;46.484;13.832;2022-11-20T14:21:54;6.17;;;2.90;;
12469;SDS011;36499;46.484;13.832;2022-11-20T14:24:35;6.00;;;3.20;;
12469;SDS011;36499;46.484;13.832;2022-11-20T14:27:02;4.63;;;3.10;;
12469;SDS011;36499;46.484;13.832;2022-11-20T14:29:38;3.27;;;2.97;;
12469;SDS011;36499;46.484;13.832;2022-11-20T14:32:15;3.83;;;2.93;;
12469;SDS011;36499;46.484;13.832;2022-11-20T14:34:46;3.10;;;2.80;;
12469;SDS011;36499;46.484;13.832;2022-11-20T14:37:18;5.23;;;3.10;;
12469;SDS011;36499;46.484;13.832;2022-11-20T14:39:50;4.03;;;3.40;;
12469;SDS011;36499;46.484;13.832;2022-11-20T14:42:24;3.83;;;3.07;;
12469;SDS011;36499;46.484;13.832;2022-11-20T14:44:54;3.40;;;2.93;;
12469;SDS011;36499;46.484;13.832;2022-11-20T14:47:26;3.93;;;3.20;;
12469;SDS011;36499;46.484;13.832;2022-11-20T14:49:57;4.47;;;3.40;;
12469;SDS011;36499;46.484;13.832;2022-11-20T14:52:26;5.50;;;3.97;;
12469;SDS011;36499;46.484;13.832;2022-11-20T14:54:56;3.93;;;3.40;;
12469;SDS011;36499;46.484;13.832;2022-11-20T14:57:25;4.83;;;3.97;;
12469;SDS011;36499;46.484;13.832;2022-11-20T15:00:05;4.93;;;4.07;;
12469;SDS011;36499;46.484;13.832;2022-11-20T15:02:47;7.07;;;3.80;;
12469;SDS011;36499;46.484;13.832;2022-11-20T15:05:17;4.63;;;4.03;;
12469;SDS011;36499;46.484;13.832;2022-11-20T15:07:47;5.27;;;4.33;;
12469;SDS011;36499;46.484;13.832;2022-11-20T15:10:21;7.20;;;5.23;;
12469;SDS011;36499;46.484;13.832;2022-11-20T15:12:51;6.50;;;4.50;;
12469;SDS011;36499;46.484;13.832;2022-11-20T15:15:31;5.00;;;4.10;;
12469;SDS011;36499;46.484;13.832;2022-11-20T15:18:10;4.30;;;3.50;;